Time;durP1;ratioP1;P1;durP2;ratioP2;P2;SDS_P1;SDS_P2;PMS_P1;PMS_P2;Temp;Humidity;BMP_temperature;BMP_pressure;BME280_temperature;BME280_humidity;BME280_pressure;Samples;Min_cycle;Max_cycle;Signal;HPM_P1;HPM_P2
2022/05/18 00:00:59;;;;;;;19.85;10.35;;;17.50;99.90;;;;;;4987362;28;20045;-68
2022/05/18 00:03:29;;;;;;;16.70;10.20;;;17.50;99.90;;;;;;4985727;28;20046;-68
2022/05/18 00:05:55;;;;;;;14.50;10.05;;;17.50;99.90;;;;;;4984607;28;20060;-68
2022/05/18 00:08:21;;;;;;;18.17;9.95;;;17.50;99.90;;;;;;4990231;28;20042;-69
2022/05/18 00:10:49;;;;;;;19.85;10.13;;;17.40;99.90;;;;;;4986177;28;20489;-69
2022/05/18 00:13:15;;;;;;;15.73;9.77;;;17.50;99.90;;;;;;4984110;28;20547;-69
2022/05/18 00:15:42;;;;;;;17.63;10.05;;;17.40;99.90;;;;;;4984968;28;20047;-69
2022/05/18 00:18:08;;;;;;;14.43;8.98;;;17.30;99.90;;;;;;4983428;28;20516;-70
2022/05/18 00:20:33;;;;;;;15.95;9.35;;;17.30;99.90;;;;;;4990710;28;20070;-68
2022/05/18 00:23:01;;;;;;;11.45;8.32;;;17.30;99.90;;;;;;4989809;28;20050;-68
2022/05/18 00:25:33;;;;;;;16.88;8.43;;;17.30;99.90;;;;;;4987736;28;20077;-69
2022/05/18 00:27:59;;;;;;;14.48;8.30;;;17.30;99.90;;;;;;4982861;28;20130;-69
2022/05/18 00:30:27;;;;;;;15.35;8.82;;;17.30;99.90;;;;;;4987499;28;20047;-69
2022/05/18 00:32:53;;;;;;;11.60;7.93;;;17.20;99.90;;;;;;4984007;28;20049;-68
2022/05/18 00:35:20;;;;;;;14.35;7.97;;;17.20;99.90;;;;;;4986950;28;20042;-69
2022/05/18 00:37:46;;;;;;;10.73;7.53;;;17.20;99.90;;;;;;4984994;28;20069;-68
2022/05/18 00:40:16;;;;;;;16.10;7.75;;;17.20;99.90;;;;;;4986042;28;20042;-69
2022/05/18 00:42:42;;;;;;;18.67;7.88;;;17.10;99.90;;;;;;4986981;28;20071;-68
2022/05/18 00:45:08;;;;;;;13.43;7.15;;;17.10;99.90;;;;;;4985581;28;20081;-69
2022/05/18 00:47:34;;;;;;;11.15;7.00;;;17.10;99.90;;;;;;4985628;28;20046;-68
2022/05/18 00:50:06;;;;;;;15.00;6.90;;;17.10;99.90;;;;;;4992501;28;20042;-68
2022/05/18 00:52:36;;;;;;;13.45;7.28;;;17.00;99.90;;;;;;4986227;28;20046;-68
2022/05/18 00:55:03;;;;;;;15.90;7.13;;;17.10;99.90;;;;;;4987934;28;20053;-69
2022/05/18 00:57:36;;;;;;;11.32;6.20;;;17.00;99.90;;;;;;4987523;28;20042;-68
2022/05/18 01:00:10;;;;;;;13.15;6.57;;;17.00;99.90;;;;;;4981326;28;20123;-68
2022/05/18 01:02:40;;;;;;;12.07;6.75;;;17.00;99.90;;;;;;4991292;28;20046;-68
2022/05/18 01:05:10;;;;;;;11.63;6.05;;;17.00;99.90;;;;;;4983585;28;20142;-70
2022/05/18 01:07:45;;;;;;;16.67;6.95;;;16.90;99.90;;;;;;4989496;28;20077;-68
2022/05/18 01:10:11;;;;;;;9.25;5.78;;;17.00;99.90;;;;;;4982774;28;20057;-68
2022/05/18 01:12:37;;;;;;;11.07;5.75;;;16.90;99.90;;;;;;4989774;28;20038;-68
2022/05/18 01:15:05;;;;;;;14.13;6.10;;;17.00;99.90;;;;;;4984501;28;20049;-68
2022/05/18 01:17:36;;;;;;;12.27;6.00;;;16.90;99.90;;;;;;4985631;28;20514;-68
2022/05/18 01:20:09;;;;;;;11.88;5.63;;;16.90;99.90;;;;;;4989891;28;20381;-69
2022/05/18 01:22:52;;;;;;;8.68;5.15;;;16.80;99.90;;;;;;4981033;28;20053;-68
2022/05/18 01:25:21;;;;;;;9.60;5.32;;;16.90;99.90;;;;;;4985704;28;20052;-68
2022/05/18 01:27:46;;;;;;;12.32;5.80;;;16.80;99.90;;;;;;4988334;28;20038;-68
2022/05/18 01:30:13;;;;;;;11.88;5.25;;;16.80;99.90;;;;;;4984273;28;20085;-69
2022/05/18 01:32:41;;;;;;;10.32;5.43;;;16.90;99.90;;;;;;4979976;28;20047;-68
2022/05/18 01:35:09;;;;;;;12.10;6.55;;;16.80;99.90;;;;;;4990337;28;20121;-68
2022/05/18 01:37:35;;;;;;;8.80;5.00;;;16.80;99.90;;;;;;4983658;28;20054;-69
2022/05/18 01:40:05;;;;;;;13.13;5.43;;;16.70;99.90;;;;;;4986734;28;20042;-70
2022/05/18 01:42:36;;;;;;;9.70;5.53;;;16.70;99.90;;;;;;4985003;28;20092;-69
2022/05/18 01:45:02;;;;;;;14.23;5.90;;;16.70;99.90;;;;;;4976435;28;20082;-69
2022/05/18 01:47:33;;;;;;;12.23;5.38;;;16.70;99.90;;;;;;4985441;28;20039;-69
2022/05/18 01:50:01;;;;;;;8.70;4.95;;;16.70;99.90;;;;;;4985600;28;20042;-68
2022/05/18 01:52:27;;;;;;;12.13;5.45;;;16.70;99.90;;;;;;4991805;28;20684;-68
2022/05/18 01:54:52;;;;;;;10.23;5.28;;;16.60;99.90;;;;;;4989378;28;20042;-68
2022/05/18 01:57:18;;;;;;;8.10;4.82;;;16.60;99.90;;;;;;4989574;28;20038;-69
2022/05/18 01:59:43;;;;;;;13.18;5.20;;;16.60;99.90;;;;;;4989064;28;20093;-69
2022/05/18 02:02:14;;;;;;;11.70;5.63;;;16.60;99.90;;;;;;4987078;28;20042;-69
2022/05/18 02:04:41;;;;;;;10.52;5.75;;;16.60;99.90;;;;;;4984284;28;20055;-68
2022/05/18 02:07:07;;;;;;;9.50;5.60;;;16.50;99.90;;;;;;4991220;28;20122;-69
2022/05/18 02:09:32;;;;;;;11.25;5.40;;;16.50;99.90;;;;;;4985393;28;20449;-69
2022/05/18 02:11:59;;;;;;;10.60;5.28;;;16.50;99.90;;;;;;4991001;28;20043;-68
2022/05/18 02:14:26;;;;;;;11.93;5.67;;;16.50;99.90;;;;;;4965028;28;20446;-68
2022/05/18 02:16:55;;;;;;;20.45;5.78;;;16.50;99.90;;;;;;4978082;28;20409;-69
2022/05/18 02:19:20;;;;;;;9.70;5.47;;;16.50;99.90;;;;;;4993561;28;20041;-68
2022/05/18 02:21:46;;;;;;;10.05;5.50;;;16.50;99.90;;;;;;4992972;28;20050;-69
2022/05/18 02:24:12;;;;;;;16.52;6.28;;;16.50;99.90;;;;;;4993556;28;20042;-68
2022/05/18 02:26:38;;;;;;;12.80;5.90;;;16.50;99.90;;;;;;4990637;28;20113;-69
2022/05/18 02:29:04;;;;;;;16.50;5.82;;;16.40;99.90;;;;;;4984348;28;20176;-68
2022/05/18 02:31:30;;;;;;;13.82;5.80;;;16.40;99.90;;;;;;4996549;28;20045;-69
2022/05/18 02:33:56;;;;;;;12.13;5.93;;;16.40;99.90;;;;;;4987785;28;20042;-69
2022/05/18 02:36:22;;;;;;;7.80;5.85;;;16.40;99.90;;;;;;4990072;28;20034;-69
2022/05/18 02:38:48;;;;;;;15.68;6.50;;;16.40;99.90;;;;;;4989377;28;20069;-69
2022/05/18 02:41:14;;;;;;;13.50;6.10;;;16.40;99.90;;;;;;4989550;28;20129;-69
2022/05/18 02:43:40;;;;;;;10.43;6.70;;;16.40;99.90;;;;;;4985244;28;20091;-68
2022/05/18 02:46:18;;;;;;;11.30;5.88;;;16.40;99.90;;;;;;4988256;28;20128;-69
2022/05/18 02:48:45;;;;;;;8.93;6.72;;;16.40;99.90;;;;;;4994863;28;20053;-70
2022/05/18 02:51:15;;;;;;;9.98;6.38;;;16.30;99.90;;;;;;4987779;28;20485;-68
2022/05/18 02:53:41;;;;;;;9.90;6.10;;;16.30;99.90;;;;;;4989450;28;20457;-69
2022/05/18 02:56:10;;;;;;;11.32;6.25;;;16.30;99.90;;;;;;4986835;28;20130;-69
2022/05/18 02:58:42;;;;;;;13.15;6.30;;;16.30;99.90;;;;;;4989561;28;20444;-69
2022/05/18 03:01:14;;;;;;;9.63;6.55;;;16.30;99.90;;;;;;4990354;28;20039;-68
2022/05/18 03:03:40;;;;;;;9.43;6.38;;;16.20;99.90;;;;;;4986855;28;20049;-68
2022/05/18 03:06:09;;;;;;;11.95;6.43;;;16.20;99.90;;;;;;4988769;28;20512;-69
2022/05/18 03:08:37;;;;;;;9.63;6.35;;;16.20;99.90;;;;;;4987976;28;20497;-69
2022/05/18 03:11:04;;;;;;;12.02;6.95;;;16.20;99.90;;;;;;4989304;28;20488;-68
2022/05/18 03:13:30;;;;;;;12.30;6.80;;;16.10;99.90;;;;;;4984009;28;20035;-69
2022/05/18 03:15:56;;;;;;;13.25;7.85;;;16.10;99.90;;;;;;4982931;28;20039;-68
2022/05/18 03:18:22;;;;;;;9.45;7.38;;;16.20;99.90;;;;;;4986911;28;20043;-68
2022/05/18 03:23:35;;;;;;;14.30;6.30;;;16.10;99.90;;;;;;4991029;28;20053;-69
2022/05/18 03:26:08;;;;;;;11.88;7.13;;;16.00;99.90;;;;;;4989059;28;20117;-68
2022/05/18 03:28:44;;;;;;;9.77;7.18;;;16.00;99.90;;;;;;4985061;28;20039;-69
2022/05/18 03:31:10;;;;;;;9.38;6.60;;;15.90;99.90;;;;;;4994688;28;20029;-69
2022/05/18 03:33:37;;;;;;;14.43;7.30;;;16.00;99.90;;;;;;4990314;28;20042;-69
2022/05/18 03:36:04;;;;;;;9.00;6.70;;;15.90;99.90;;;;;;4986527;28;20046;-68
2022/05/18 03:38:30;;;;;;;11.93;6.00;;;15.90;99.90;;;;;;4986643;28;20077;-69
2022/05/18 03:40:55;;;;;;;15.48;7.45;;;15.80;99.90;;;;;;4999328;28;20078;-69
2022/05/18 03:43:21;;;;;;;11.23;6.78;;;15.80;99.90;;;;;;4986704;28;20396;-71
2022/05/18 03:45:47;;;;;;;13.35;6.95;;;15.90;99.90;;;;;;4986737;28;20151;-69
2022/05/18 03:48:14;;;;;;;12.48;6.03;;;15.80;99.90;;;;;;4983720;28;20147;-69
2022/05/18 03:50:42;;;;;;;10.85;6.47;;;15.80;99.90;;;;;;4986099;28;20042;-69
2022/05/18 03:53:08;;;;;;;9.52;6.68;;;15.80;99.90;;;;;;4992487;28;20238;-70
2022/05/18 03:55:36;;;;;;;9.77;6.57;;;15.80;99.90;;;;;;4969057;28;20120;-69
2022/05/18 03:58:02;;;;;;;10.73;7.15;;;15.70;99.90;;;;;;4984464;28;20492;-69
2022/05/18 04:00:28;;;;;;;10.60;6.95;;;15.70;99.90;;;;;;4986055;28;20042;-69
2022/05/18 04:02:54;;;;;;;14.35;7.75;;;15.70;99.90;;;;;;4982812;28;20084;-69
2022/05/18 04:05:20;;;;;;;13.77;6.80;;;15.70;99.90;;;;;;4983269;28;20050;-69
2022/05/18 04:07:47;;;;;;;14.13;7.82;;;15.70;99.90;;;;;;4991096;28;20404;-69
2022/05/18 04:10:14;;;;;;;12.00;8.32;;;15.80;99.90;;;;;;4992588;28;20050;-69
2022/05/18 04:12:41;;;;;;;12.80;7.93;;;15.70;99.90;;;;;;4978347;28;20046;-69
2022/05/18 04:15:07;;;;;;;15.75;8.48;;;15.70;99.90;;;;;;4988870;28;20118;-69
2022/05/18 04:17:33;;;;;;;13.25;8.70;;;15.70;99.90;;;;;;4989182;28;20042;-69
2022/05/18 04:19:58;;;;;;;15.15;8.65;;;15.70;99.90;;;;;;4989015;28;20040;-68
2022/05/18 04:22:24;;;;;;;15.93;7.82;;;16.30;99.90;;;;;;4988638;28;20432;-69
2022/05/18 04:24:50;;;;;;;15.63;8.77;;;15.70;99.90;;;;;;4987167;28;20050;-69
2022/05/18 04:27:17;;;;;;;13.63;7.80;;;15.70;99.90;;;;;;4990572;28;20058;-69
2022/05/18 04:29:42;;;;;;;12.05;8.43;;;15.70;99.90;;;;;;4992589;28;20042;-69
2022/05/18 04:32:08;;;;;;;13.23;8.63;;;15.70;99.90;;;;;;4988945;28;20044;-68
2022/05/18 04:34:34;;;;;;;14.63;8.93;;;15.80;99.90;;;;;;4989923;28;20057;-69
2022/05/18 04:37:00;;;;;;;13.00;8.52;;;15.80;99.90;;;;;;4976128;28;20451;-70
2022/05/18 04:39:25;;;;;;;14.77;8.77;;;15.80;99.90;;;;;;4989941;28;20035;-69
2022/05/18 04:41:54;;;;;;;16.40;8.88;;;15.80;99.90;;;;;;4984410;28;20504;-69
2022/05/18 04:44:20;;;;;;;15.30;8.95;;;15.90;99.90;;;;;;4991782;28;20046;-68
2022/05/18 04:46:45;;;;;;;14.23;9.13;;;15.90;99.90;;;;;;4988253;28;20038;-70
2022/05/18 04:49:12;;;;;;;10.73;8.00;;;15.90;99.90;;;;;;4987768;28;20184;-69
2022/05/18 04:51:38;;;;;;;16.60;9.65;;;15.80;99.90;;;;;;4987979;28;20057;-68
2022/05/18 04:54:04;;;;;;;12.85;8.90;;;15.90;99.90;;;;;;4987829;28;20077;-69
2022/05/18 04:56:30;;;;;;;15.40;9.02;;;16.00;99.90;;;;;;4991972;28;20050;-68
2022/05/18 04:58:56;;;;;;;15.82;8.88;;;16.00;99.90;;;;;;4984890;28;20287;-69
2022/05/18 05:01:25;;;;;;;13.32;8.07;;;16.10;99.90;;;;;;4986817;28;20042;-69
2022/05/18 05:03:51;;;;;;;13.02;9.07;;;16.10;99.90;;;;;;4984146;28;20046;-69
2022/05/18 05:06:17;;;;;;;13.40;8.70;;;16.20;99.90;;;;;;4982492;28;20046;-69
2022/05/18 05:08:42;;;;;;;14.27;8.88;;;16.20;99.90;;;;;;4979782;28;20086;-69
2022/05/18 05:11:09;;;;;;;12.70;7.93;;;16.30;99.90;;;;;;4985336;28;20073;-69
2022/05/18 05:13:35;;;;;;;16.15;9.10;;;16.50;99.90;;;;;;4983260;28;20042;-68
2022/05/18 05:16:05;;;;;;;18.75;8.65;;;16.40;99.90;;;;;;4987400;28;20050;-68
2022/05/18 05:18:31;;;;;;;17.30;8.38;;;16.50;99.90;;;;;;4983239;28;20069;-69
2022/05/18 05:20:57;;;;;;;10.85;8.18;;;16.50;99.90;;;;;;4969224;28;20054;-68
2022/05/18 05:23:24;;;;;;;12.77;7.93;;;16.50;99.90;;;;;;4984267;28;20039;-70
2022/05/18 05:25:54;;;;;;;11.93;7.45;;;16.70;99.90;;;;;;4986788;28;20046;-69
2022/05/18 05:28:20;;;;;;;14.00;7.75;;;16.60;99.90;;;;;;4990174;28;20101;-70
2022/05/18 05:30:46;;;;;;;12.80;7.32;;;16.60;99.90;;;;;;4979339;28;20073;-70
2022/05/18 05:33:12;;;;;;;10.85;7.40;;;16.70;99.90;;;;;;4988824;28;20136;-70
2022/05/18 05:35:42;;;;;;;10.25;6.95;;;16.80;99.90;;;;;;4985161;28;20039;-69
2022/05/18 05:38:09;;;;;;;14.23;7.63;;;16.90;99.90;;;;;;4979731;28;20042;-70
2022/05/18 05:40:36;;;;;;;12.73;8.18;;;17.00;99.90;;;;;;4989060;28;20509;-70
2022/05/18 05:43:11;;;;;;;15.38;7.60;;;17.10;99.90;;;;;;4991702;28;20038;-69
2022/05/18 05:45:37;;;;;;;11.02;8.13;;;17.20;99.90;;;;;;4980233;28;20042;-69
2022/05/18 05:48:05;;;;;;;14.90;8.25;;;17.30;99.90;;;;;;4998458;28;20100;-69
2022/05/18 05:50:31;;;;;;;14.32;8.27;;;17.40;99.90;;;;;;4982179;28;20054;-69
2022/05/18 05:52:58;;;;;;;11.23;7.75;;;17.60;99.90;;;;;;4986508;28;20115;-69
2022/05/18 05:55:24;;;;;;;21.08;8.73;;;17.70;99.90;;;;;;4994183;28;20039;-68
2022/05/18 05:57:53;;;;;;;14.30;7.80;;;17.80;99.90;;;;;;4988895;28;20100;-68
2022/05/18 06:00:18;;;;;;;13.55;8.15;;;17.80;99.90;;;;;;4990242;28;20785;-69
2022/05/18 06:02:44;;;;;;;11.85;7.47;;;17.80;99.90;;;;;;4981308;28;20054;-68
2022/05/18 06:05:10;;;;;;;15.65;7.40;;;18.00;99.90;;;;;;4986657;28;20046;-69
2022/05/18 06:07:36;;;;;;;14.48;7.65;;;18.10;99.90;;;;;;4987618;28;20543;-68
2022/05/18 06:10:02;;;;;;;11.27;7.10;;;18.20;99.90;;;;;;4987409;28;20050;-68
2022/05/18 06:12:28;;;;;;;13.18;8.07;;;18.30;99.90;;;;;;4991042;28;20038;-69
2022/05/18 06:14:53;;;;;;;13.70;7.50;;;18.40;99.90;;;;;;4987288;28;20042;-68
2022/05/18 06:17:19;;;;;;;11.80;7.72;;;18.40;99.90;;;;;;4983472;28;20133;-69
2022/05/18 06:19:44;;;;;;;14.02;7.40;;;18.70;99.90;;;;;;4990355;28;20503;-69
2022/05/18 06:22:10;;;;;;;12.02;8.35;;;18.80;99.90;;;;;;4985658;28;20500;-68
2022/05/18 06:24:36;;;;;;;15.70;8.55;;;18.90;99.90;;;;;;4989642;28;20053;-68
2022/05/18 06:27:03;;;;;;;13.10;7.55;;;19.10;99.90;;;;;;4990598;28;20038;-69
2022/05/18 06:29:29;;;;;;;12.73;7.40;;;19.30;99.90;;;;;;4990219;28;20759;-71
2022/05/18 06:31:56;;;;;;;13.43;7.32;;;19.40;99.90;;;;;;4991407;28;20038;-69
2022/05/18 06:34:22;;;;;;;11.13;7.70;;;19.60;99.90;;;;;;4989908;28;20125;-69
2022/05/18 06:36:50;;;;;;;12.82;8.07;;;19.70;99.90;;;;;;4987754;28;20043;-71
2022/05/18 06:39:18;;;;;;;13.30;7.70;;;19.90;99.90;;;;;;4991710;28;20113;-70
2022/05/18 06:41:44;;;;;;;10.90;7.18;;;20.00;99.90;;;;;;4978359;28;20053;-69
2022/05/18 06:44:11;;;;;;;13.80;8.60;;;20.10;99.90;;;;;;4996171;28;20044;-70
2022/05/18 06:46:37;;;;;;;15.45;8.52;;;20.30;99.90;;;;;;4994993;28;20043;-70
2022/05/18 06:49:08;;;;;;;11.00;8.25;;;20.40;99.90;;;;;;4995565;28;20121;-70
2022/05/18 06:51:37;;;;;;;15.25;8.15;;;20.60;99.90;;;;;;4994293;28;20050;-69
2022/05/18 06:54:04;;;;;;;15.23;9.20;;;20.80;99.90;;;;;;4992430;28;20053;-69
2022/05/18 06:56:32;;;;;;;18.37;9.23;;;20.90;99.90;;;;;;4970551;28;20057;-69
2022/05/18 06:58:58;;;;;;;14.27;8.27;;;21.00;99.90;;;;;;4990510;28;20042;-68
2022/05/18 07:01:26;;;;;;;13.52;8.75;;;21.10;99.90;;;;;;4989436;28;20397;-69
2022/05/18 07:03:52;;;;;;;17.17;8.57;;;21.20;99.90;;;;;;4989639;28;20043;-69
2022/05/18 07:06:21;;;;;;;13.35;8.63;;;21.30;99.90;;;;;;4990154;28;20144;-69
2022/05/18 07:08:47;;;;;;;15.10;9.15;;;21.40;99.90;;;;;;4989928;28;20073;-69
2022/05/18 07:11:13;;;;;;;14.07;8.35;;;21.50;99.90;;;;;;4990505;28;20404;-69
2022/05/18 07:13:40;;;;;;;11.68;8.18;;;21.60;99.90;;;;;;4990163;28;20049;-68
2022/05/18 07:16:06;;;;;;;24.48;9.30;;;21.70;99.90;;;;;;4991342;28;20050;-71
2022/05/18 07:18:33;;;;;;;14.23;9.05;;;21.80;99.90;;;;;;4990038;28;20045;-69
2022/05/18 07:21:02;;;;;;;16.70;8.05;;;21.90;99.90;;;;;;4988467;28;20043;-69
2022/05/18 07:23:28;;;;;;;15.68;8.75;;;22.10;99.90;;;;;;4988575;28;20049;-69
2022/05/18 07:25:56;;;;;;;17.42;8.77;;;22.20;99.90;;;;;;4990775;28;20042;-70
2022/05/18 07:28:22;;;;;;;;;;;22.40;99.90;;;;;;4970720;28;20043;-69
2022/05/18 07:30:49;;;;;;;15.18;9.23;;;22.50;99.90;;;;;;4991069;28;19936;-70
2022/05/18 07:33:16;;;;;;;15.88;8.70;;;22.60;99.90;;;;;;4990812;28;21162;-70
2022/05/18 07:35:42;;;;;;;15.25;8.27;;;22.70;99.90;;;;;;4990519;28;20046;-69
2022/05/18 07:38:09;;;;;;;15.07;8.63;;;22.70;99.90;;;;;;4990414;28;20172;-70
2022/05/18 07:40:34;;;;;;;20.60;8.85;;;22.90;99.90;;;;;;4992393;28;20515;-68
2022/05/18 07:43:01;;;;;;;13.88;7.90;;;23.10;99.90;;;;;;4990280;28;20034;-69
2022/05/18 07:45:27;;;;;;;12.43;7.65;;;23.20;99.90;;;;;;4990830;28;20530;-69
2022/05/18 07:47:53;;;;;;;16.25;7.63;;;23.40;99.90;;;;;;4991367;28;20038;-70
2022/05/18 07:50:22;;;;;;;14.75;7.45;;;23.60;99.90;;;;;;4989312;28;20097;-69
2022/05/18 07:52:48;;;;;;;11.02;7.68;;;23.70;99.90;;;;;;4990522;28;20054;-69
2022/05/18 07:55:14;;;;;;;15.18;7.30;;;23.70;99.90;;;;;;4989676;28;20057;-69
2022/05/18 07:57:40;;;;;;;12.20;7.03;;;23.80;99.90;;;;;;4988854;28;20050;-69
2022/05/18 08:00:12;;;;;;;10.63;5.90;;;23.90;99.90;;;;;;4990067;28;20503;-70
2022/05/18 08:02:38;;;;;;;10.15;5.43;;;23.90;99.90;;;;;;4991617;28;20134;-69
2022/05/18 08:05:05;;;;;;;16.02;5.57;;;24.00;99.90;;;;;;4988547;28;20055;-71
2022/05/18 08:07:31;;;;;;;9.10;5.63;;;24.20;99.60;;;;;;4988231;28;20038;-69
2022/05/18 08:15:26;;;;;;;14.15;5.20;;;24.50;98.90;;;;;;4988595;28;20574;-70
2022/05/18 08:17:52;;;;;;;9.10;5.18;;;24.80;98.80;;;;;;4988912;28;20078;-69
2022/05/18 08:20:20;;;;;;;10.68;5.40;;;24.90;98.30;;;;;;4991240;28;20595;-69
2022/05/18 08:22:46;;;;;;;9.75;4.40;;;24.90;97.80;;;;;;4989135;28;20497;-68
2022/05/18 08:25:13;;;;;;;9.60;4.72;;;25.20;97.80;;;;;;4990654;28;20082;-69
2022/05/18 08:27:45;;;;;;;9.30;4.50;;;25.40;97.50;;;;;;4987666;28;20091;-70
2022/05/18 08:30:17;;;;;;;10.38;5.13;;;25.50;97.00;;;;;;4987086;28;20464;-70
2022/05/18 08:32:43;;;;;;;8.80;4.70;;;25.60;96.50;;;;;;4989394;28;20096;-69
2022/05/18 08:35:11;;;;;;;13.60;5.30;;;25.80;96.60;;;;;;4986885;28;20038;-68
2022/05/18 08:37:42;;;;;;;5.90;4.28;;;25.80;95.90;;;;;;4987963;28;20050;-71
2022/05/18 08:40:23;;;;;;;10.55;4.28;;;25.90;95.20;;;;;;4988197;28;20054;-69
2022/05/18 08:42:49;;;;;;;7.68;4.10;;;26.00;94.90;;;;;;4985505;28;20077;-69
2022/05/18 08:45:14;;;;;;;6.75;3.38;;;26.10;93.40;;;;;;4982097;28;20457;-70
2022/05/18 08:47:45;;;;;;;11.82;3.80;;;26.10;92.90;;;;;;4980669;28;20108;-70
2022/05/18 08:50:18;;;;;;;6.78;3.03;;;26.00;92.10;;;;;;4962734;28;20042;-69
2022/05/18 08:52:58;;;;;;;6.85;3.10;;;26.10;91.50;;;;;;4984629;28;20548;-70
2022/05/18 08:55:26;;;;;;;8.05;3.33;;;26.20;91.50;;;;;;4989777;28;20056;-70
2022/05/18 08:57:54;;;;;;;8.13;3.30;;;26.30;91.80;;;;;;4987490;28;20155;-70
2022/05/18 09:00:28;;;;;;;8.55;4.07;;;26.40;91.00;;;;;;4986875;28;20054;-70
2022/05/18 09:03:05;;;;;;;8.32;2.97;;;26.50;90.00;;;;;;4987566;28;20556;-69
2022/05/18 09:06:05;;;;;;;13.25;3.40;;;26.50;90.80;;;;;;4989006;28;20054;-69
2022/05/18 09:08:38;;;;;;;9.05;2.60;;;26.70;91.00;;;;;;4993860;28;20524;-70
2022/05/18 09:11:05;;;;;;;6.57;2.67;;;26.80;90.00;;;;;;4986159;28;20049;-70
2022/05/18 09:13:31;;;;;;;;;;;27.00;89.50;;;;;;4989153;28;20088;-70
2022/05/18 09:16:14;;;;;;;11.10;3.50;;;27.00;87.20;;;;;;4988255;28;19926;-69
2022/05/18 09:18:55;;;;;;;6.93;3.67;;;27.00;84.70;;;;;;4983395;28;20042;-70
2022/05/18 09:22:00;;;;;;;13.15;3.78;;;27.00;86.60;;;;;;4987047;28;20060;-70
2022/05/18 09:24:35;;;;;;;11.70;3.92;;;27.20;84.50;;;;;;5006016;28;20481;-71
2022/05/18 09:27:09;;;;;;;8.77;3.80;;;27.30;86.80;;;;;;5009366;28;20451;-69
2022/05/18 09:30:02;;;;;;;9.95;4.28;;;27.40;86.50;;;;;;4995810;28;20047;-69
2022/05/18 09:32:34;;;;;;;5.97;3.38;;;27.50;85.40;;;;;;4989545;28;20046;-70
2022/05/18 09:35:20;;;;;;;10.38;4.18;;;27.70;84.80;;;;;;4989384;28;20053;-69
2022/05/18 09:37:55;;;;;;;9.95;4.30;;;27.80;81.60;;;;;;4988624;28;20050;-69
2022/05/18 09:40:40;;;;;;;9.25;4.05;;;27.90;83.60;;;;;;4989264;28;20066;-70
2022/05/18 09:43:18;;;;;;;19.00;4.20;;;28.00;83.60;;;;;;4985869;28;20042;-70
2022/05/18 09:45:47;;;;;;;6.72;4.07;;;28.10;83.30;;;;;;4987245;28;20042;-68
2022/05/18 09:48:28;;;;;;;9.02;4.40;;;28.20;82.80;;;;;;4986617;28;20053;-67
2022/05/18 09:50:55;;;;;;;11.23;4.30;;;28.20;79.10;;;;;;4986030;28;20511;-68
2022/05/18 09:53:21;;;;;;;10.00;5.05;;;28.20;80.20;;;;;;4980241;28;20073;-69
2022/05/18 09:55:49;;;;;;;12.52;5.57;;;28.10;79.20;;;;;;4989062;28;20121;-69
2022/05/18 09:58:24;;;;;;;10.88;5.53;;;28.10;79.60;;;;;;4995982;28;20413;-69
2022/05/18 10:07:27;;;;;;;12.43;5.28;;;28.00;80.70;;;;;;4990183;28;20381;-69
2022/05/18 10:09:45;;;;;;;10.32;4.95;;;28.70;81.80;;;;;;4989380;28;20062;-69
2022/05/18 10:12:21;;;;;;;11.27;5.55;;;28.90;78.20;;;;;;4987989;28;20043;-69
2022/05/18 10:14:49;;;;;;;12.20;5.10;;;29.00;77.50;;;;;;4994959;28;20045;-69
2022/05/18 10:17:18;;;;;;;10.70;4.72;;;29.00;77.20;;;;;;4994602;28;20053;-69
2022/05/18 10:19:52;;;;;;;10.95;4.50;;;28.90;78.00;;;;;;4990404;28;20054;-70
2022/05/18 10:22:23;;;;;;;14.80;5.28;;;29.00;77.60;;;;;;4975934;28;20116;-67
2022/05/18 10:24:57;;;;;;;11.05;4.47;;;29.10;76.40;;;;;;4988362;28;20042;-69
2022/05/18 10:27:28;;;;;;;9.95;4.45;;;29.20;78.10;;;;;;4976510;28;20053;-70
2022/05/18 10:30:17;;;;;;;11.20;4.88;;;29.40;77.30;;;;;;4991602;28;20400;-69
2022/05/18 10:33:03;;;;;;;12.18;4.70;;;29.70;75.20;;;;;;4990021;28;20039;-69
2022/05/18 10:35:49;;;;;;;10.15;4.50;;;29.80;75.00;;;;;;5010603;28;20047;-69
2022/05/18 10:38:25;;;;;;;14.27;5.03;;;29.90;76.00;;;;;;4960778;28;20133;-68
2022/05/18 10:41:02;;;;;;;9.63;5.00;;;30.10;74.80;;;;;;4991756;28;20042;-70
2022/05/18 10:43:37;;;;;;;15.98;5.35;;;30.30;72.80;;;;;;4989637;28;20046;-70
2022/05/18 10:46:12;;;;;;;10.88;4.72;;;30.40;72.20;;;;;;4990173;28;20050;-70
2022/05/18 10:48:41;;;;;;;9.13;4.65;;;30.40;73.20;;;;;;4994996;28;20069;-70
2022/05/18 10:51:10;;;;;;;10.02;5.38;;;30.70;73.70;;;;;;4994393;28;20452;-70
2022/05/18 10:53:40;;;;;;;8.10;5.07;;;30.90;72.50;;;;;;4994838;28;20117;-69
2022/05/18 10:56:27;;;;;;;11.23;5.25;;;31.00;72.60;;;;;;4991671;28;20051;-70
2022/05/18 10:59:30;;;;;;;12.77;5.13;;;31.10;72.40;;;;;;4993395;28;20105;-70
2022/05/18 11:02:13;;;;;;;14.25;6.63;;;31.40;72.70;;;;;;4983542;28;20551;-70
2022/05/18 11:04:47;;;;;;;13.13;6.47;;;31.60;71.80;;;;;;4981364;28;20138;-70
2022/05/18 11:07:13;;;;;;;16.30;6.90;;;31.70;71.90;;;;;;4991177;28;20050;-70
2022/05/18 11:09:40;;;;;;;11.93;7.13;;;31.80;71.00;;;;;;4973915;28;20051;-71
2022/05/18 11:12:24;;;;;;;14.68;7.40;;;31.80;69.60;;;;;;4976401;28;20057;-70
2022/05/18 11:14:58;;;;;;;17.52;8.10;;;31.90;71.40;;;;;;4988560;28;20092;-70
2022/05/18 11:17:36;;;;;;;11.82;6.82;;;31.80;70.50;;;;;;4994471;28;20046;-69
2022/05/18 11:20:32;;;;;;;10.80;6.53;;;32.00;71.30;;;;;;4992173;28;20078;-70
2022/05/18 11:23:12;;;;;;;14.98;6.15;;;32.00;69.40;;;;;;4989694;28;20125;-69
2022/05/18 11:25:56;;;;;;;11.75;6.72;;;32.10;68.40;;;;;;4993759;28;20512;-70
2022/05/18 11:28:40;;;;;;;15.40;7.50;;;32.10;70.20;;;;;;4994843;28;20050;-69
2022/05/18 11:31:30;;;;;;;47.58;7.50;;;32.20;68.80;;;;;;4991631;28;20145;-69
2022/05/18 11:34:14;;;;;;;15.02;7.88;;;32.20;70.20;;;;;;4974942;28;20503;-70
2022/05/18 11:36:49;;;;;;;13.55;6.88;;;32.20;67.90;;;;;;4974889;28;20049;-69
2022/05/18 11:39:55;;;;;;;13.00;7.25;;;32.10;69.20;;;;;;4980223;28;20378;-70
2022/05/18 11:42:37;;;;;;;13.77;7.13;;;32.10;68.80;;;;;;4981753;28;20493;-69
2022/05/18 11:45:12;;;;;;;15.02;6.85;;;31.90;69.00;;;;;;4983135;28;20050;-70
2022/05/18 11:47:53;;;;;;;12.32;6.55;;;31.80;69.60;;;;;;4990939;28;20090;-70
2022/05/18 11:50:23;;;;;;;11.70;7.20;;;31.80;70.50;;;;;;4986820;28;20516;-69
2022/05/18 11:52:52;;;;;;;14.68;7.68;;;32.00;68.00;;;;;;4990324;28;20412;-70
2022/05/18 11:55:35;;;;;;;17.25;6.53;;;31.90;68.10;;;;;;4982514;28;20043;-69
2022/05/18 11:58:20;;;;;;;16.25;7.38;;;31.70;68.50;;;;;;4985340;28;20492;-70
2022/05/18 12:01:14;;;;;;;15.38;8.30;;;31.60;70.00;;;;;;4992222;28;20058;-69
2022/05/18 12:04:18;;;;;;;15.88;8.63;;;31.70;70.20;;;;;;4974442;28;20497;-69
2022/05/18 12:07:02;;;;;;;12.05;8.02;;;31.90;69.20;;;;;;4985127;28;20042;-68
2022/05/18 12:09:39;;;;;;;15.63;8.13;;;31.90;70.60;;;;;;4974796;28;20046;-69
2022/05/18 12:12:22;;;;;;;16.17;9.17;;;32.00;69.20;;;;;;4991215;28;20488;-68
2022/05/18 12:14:55;;;;;;;12.02;8.13;;;31.90;67.90;;;;;;4984461;28;20360;-69
2022/05/18 12:17:28;;;;;;;12.88;9.63;;;31.50;69.50;;;;;;4993155;28;20050;-68
2022/05/18 12:19:59;;;;;;;12.57;8.70;;;31.50;69.30;;;;;;4994211;28;20050;-70
2022/05/18 12:22:57;;;;;;;12.85;7.50;;;31.50;70.20;;;;;;4993799;28;20053;-69
2022/05/18 12:25:25;;;;;;;14.13;9.02;;;31.70;71.50;;;;;;4981459;28;20058;-69
2022/05/18 12:27:55;;;;;;;13.50;8.50;;;32.10;71.10;;;;;;4993601;28;20050;-69
2022/05/18 12:30:23;;;;;;;12.95;8.55;;;32.30;70.20;;;;;;4992045;28;20396;-69
2022/05/18 12:32:50;;;;;;;13.13;8.40;;;32.40;69.50;;;;;;4993140;28;20046;-70
2022/05/18 12:35:23;;;;;;;;;;;32.10;70.10;;;;;;4994042;28;20050;-70
2022/05/18 12:38:10;;;;;;;14.15;7.75;;;31.90;69.60;;;;;;4975752;28;19918;-70
2022/05/18 12:40:54;;;;;;;14.95;9.20;;;31.80;70.90;;;;;;4974065;28;20065;-69
2022/05/18 12:43:40;;;;;;;15.70;8.40;;;31.50;70.10;;;;;;4973710;28;20520;-69
2022/05/18 12:46:21;;;;;;;12.60;7.78;;;31.20;71.10;;;;;;4975082;28;20054;-69
2022/05/18 12:48:47;;;;;;;15.30;8.65;;;30.90;71.30;;;;;;4973899;28;20046;-71
2022/05/18 12:51:44;;;;;;;13.67;7.20;;;30.80;70.90;;;;;;4990990;28;20046;-69
2022/05/18 12:54:09;;;;;;;11.27;6.82;;;30.30;71.50;;;;;;4993349;28;20074;-69
2022/05/18 12:56:35;;;;;;;9.82;6.28;;;30.00;72.30;;;;;;4992592;28;20513;-69
2022/05/18 12:59:31;;;;;;;12.93;6.75;;;29.70;73.00;;;;;;4993217;28;20046;-69
2022/05/18 13:02:04;;;;;;;14.50;6.25;;;29.50;73.70;;;;;;4975973;28;20066;-69
2022/05/18 13:04:46;;;;;;;14.45;8.75;;;29.40;74.70;;;;;;4991663;28;20094;-68
2022/05/18 13:07:30;;;;;;;11.77;7.15;;;29.50;74.60;;;;;;4989652;28;20548;-69
2022/05/18 13:10:11;;;;;;;12.38;7.43;;;29.40;76.00;;;;;;4988485;28;20054;-69